createdAt,value
2019-02-11T00:00:07.008Z,8.70
2019-02-11T00:01:08.333Z,8.70
2019-02-11T00:02:09.704Z,8.63
2019-02-11T00:03:11.071Z,9.00
2019-02-11T00:04:12.389Z,8.80
2019-02-11T00:05:13.718Z,8.40
2019-02-11T00:06:15.066Z,9.05
2019-02-11T00:07:16.404Z,8.53
2019-02-11T00:08:17.750Z,11.68
2019-02-11T00:09:19.069Z,8.53
2019-02-11T00:10:20.401Z,10.60
2019-02-11T00:11:21.732Z,8.80
2019-02-11T00:12:23.081Z,9.58
2019-02-11T00:13:24.394Z,10.40
2019-02-11T00:14:25.723Z,9.98
2019-02-11T00:15:27.038Z,8.08
2019-02-11T00:16:28.430Z,8.18
2019-02-11T00:17:29.798Z,7.80
2019-02-11T00:18:31.118Z,9.20
2019-02-11T00:19:32.447Z,8.20
2019-02-11T00:20:33.783Z,7.78
2019-02-11T00:21:35.152Z,7.75
2019-02-11T00:22:36.491Z,7.65
2019-02-11T00:23:37.807Z,6.65
2019-02-11T00:24:39.134Z,7.95
2019-02-11T00:25:40.493Z,6.72
2019-02-11T00:26:41.839Z,8.78
2019-02-11T00:27:43.186Z,7.05
2019-02-11T00:28:44.509Z,9.18
2019-02-11T00:29:45.869Z,7.28
2019-02-11T00:30:47.226Z,6.62
2019-02-11T00:31:48.554Z,12.68
2019-02-11T00:32:49.960Z,7.12
2019-02-11T00:33:51.407Z,6.70
2019-02-11T00:34:52.723Z,6.30
2019-02-11T00:35:54.114Z,6.25
2019-02-11T00:36:55.421Z,5.70
2019-02-11T00:37:56.757Z,6.08
2019-02-11T00:38:58.071Z,5.25
2019-02-11T00:39:59.393Z,5.10
2019-02-11T00:41:00.800Z,6.85
2019-02-11T00:42:02.129Z,5.58
2019-02-11T00:43:03.494Z,5.22
2019-02-11T00:44:04.863Z,4.62
2019-02-11T00:45:06.211Z,5.15
2019-02-11T00:46:07.558Z,4.90
2019-02-11T00:47:09.189Z,5.25
2019-02-11T00:48:10.536Z,5.10
2019-02-11T00:49:11.873Z,3.55
2019-02-11T00:50:13.241Z,3.90
2019-02-11T00:51:14.564Z,3.52
2019-02-11T00:52:16.018Z,3.90
2019-02-11T00:53:17.369Z,3.55
2019-02-11T00:54:18.778Z,4.40
2019-02-11T00:55:20.104Z,5.85
2019-02-11T00:56:21.412Z,3.40
2019-02-11T00:57:22.772Z,4.87
2019-02-11T00:58:24.111Z,3.60
2019-02-11T00:59:25.428Z,3.90
2019-02-11T01:00:26.791Z,4.45
2019-02-11T01:01:28.098Z,5.22
2019-02-11T01:02:29.653Z,4.92
2019-02-11T01:03:31.009Z,4.10
2019-02-11T01:04:32.354Z,4.72
2019-02-11T01:05:34.197Z,4.40
2019-02-11T01:06:35.643Z,4.47
2019-02-11T01:07:37.187Z,4.95
2019-02-11T01:08:38.772Z,6.83
2019-02-11T01:09:40.574Z,6.55
2019-02-11T01:10:42.053Z,6.22
2019-02-11T01:11:43.590Z,5.35
2019-02-11T01:12:45.010Z,6.25
2019-02-11T01:13:46.833Z,4.85
2019-02-11T01:14:48.355Z,4.67
2019-02-11T01:15:49.857Z,6.85
2019-02-11T01:16:51.293Z,7.58
2019-02-11T01:17:52.807Z,5.08
2019-02-11T01:18:56.229Z,5.87
2019-02-11T01:19:57.845Z,6.80
2019-02-11T01:20:59.832Z,6.70
2019-02-11T01:22:01.484Z,7.15
2019-02-11T01:23:02.945Z,4.72
2019-02-11T01:24:04.332Z,4.75
2019-02-11T01:25:06.015Z,5.42
2019-02-11T01:26:07.543Z,6.60
2019-02-11T01:27:09.361Z,5.83
2019-02-11T01:28:11.286Z,7.67
2019-02-11T01:29:12.709Z,5.70
2019-02-11T01:30:14.523Z,6.78
2019-02-11T01:31:16.019Z,7.47
2019-02-11T01:32:17.571Z,6.78
2019-02-11T01:33:20.033Z,5.95
2019-02-11T01:34:21.527Z,5.72
2019-02-11T01:35:23.327Z,5.17
2019-02-11T01:36:24.769Z,5.28
2019-02-11T01:37:26.285Z,7.45
2019-02-11T01:38:27.915Z,6.83
2019-02-11T01:39:29.390Z,7.12
2019-02-11T01:40:30.835Z,5.75
2019-02-11T01:41:32.516Z,8.98
2019-02-11T01:42:34.335Z,9.20
2019-02-11T01:43:36.406Z,7.00
2019-02-11T01:44:38.315Z,7.35
2019-02-11T01:45:39.990Z,8.10
2019-02-11T01:46:41.513Z,8.90
2019-02-11T01:47:44.204Z,7.28
2019-02-11T01:48:46.391Z,9.13
2019-02-11T01:49:47.771Z,8.55
2019-02-11T01:50:49.152Z,9.78
2019-02-11T01:51:50.479Z,6.83
2019-02-11T01:52:51.853Z,10.88
2019-02-11T01:53:53.214Z,10.28
2019-02-11T01:54:54.553Z,10.03
2019-02-11T01:55:55.947Z,9.15
2019-02-11T01:56:57.294Z,10.50
2019-02-11T01:57:58.625Z,8.70
2019-02-11T01:58:59.957Z,10.82
2019-02-11T02:00:01.272Z,7.35
2019-02-11T02:01:02.618Z,7.05
2019-02-11T02:02:03.997Z,9.48
2019-02-11T02:03:05.366Z,8.33
2019-02-11T02:04:06.902Z,7.72
2019-02-11T02:05:08.267Z,14.87
2019-02-11T02:06:09.619Z,8.65
2019-02-11T02:07:10.938Z,8.15
2019-02-11T02:08:12.250Z,9.83
2019-02-11T02:09:13.608Z,13.70
2019-02-11T02:10:14.942Z,9.83
2019-02-11T02:11:16.303Z,8.73
2019-02-11T02:12:17.615Z,12.50
2019-02-11T02:13:18.947Z,8.80
2019-02-11T02:14:20.254Z,9.60
2019-02-11T02:15:21.573Z,11.38
2019-02-11T02:16:22.920Z,8.25
2019-02-11T02:17:24.515Z,10.72
2019-02-11T02:18:25.867Z,13.45
2019-02-11T02:19:27.218Z,8.38
2019-02-11T02:20:28.551Z,9.83
2019-02-11T02:21:29.865Z,11.88
2019-02-11T02:22:31.199Z,9.03
2019-02-11T02:23:32.550Z,8.48
2019-02-11T02:24:33.874Z,11.05
2019-02-11T02:25:35.212Z,10.78
2019-02-11T02:26:36.506Z,8.50
2019-02-11T02:27:37.848Z,9.20
2019-02-11T02:28:39.198Z,10.80
2019-02-11T02:29:40.549Z,13.05
2019-02-11T02:30:41.881Z,11.88
2019-02-11T02:31:43.195Z,12.33
2019-02-11T02:32:44.526Z,12.00
2019-02-11T02:33:45.883Z,12.07
2019-02-11T02:34:47.254Z,8.35
2019-02-11T02:35:48.572Z,10.23
2019-02-11T02:36:49.889Z,13.48
2019-02-11T02:37:51.206Z,10.98
2019-02-11T02:38:52.579Z,10.38
2019-02-11T02:39:53.904Z,10.35
2019-02-11T02:40:55.271Z,9.85
2019-02-11T02:41:56.603Z,12.25
2019-02-11T02:42:58.077Z,15.48
2019-02-11T02:43:59.400Z,9.90
2019-02-11T02:45:00.767Z,14.03
2019-02-11T02:46:02.093Z,12.45
2019-02-11T02:47:03.422Z,12.03
2019-02-11T02:48:04.776Z,8.05
2019-02-11T02:49:06.100Z,10.72
2019-02-11T02:50:07.466Z,10.85
2019-02-11T02:51:08.814Z,9.48
2019-02-11T02:52:10.137Z,10.08
2019-02-11T02:53:11.455Z,9.98
2019-02-11T02:54:12.787Z,10.45
2019-02-11T02:55:14.134Z,15.45
2019-02-11T02:56:15.463Z,10.70
2019-02-11T02:57:16.791Z,9.23
2019-02-11T02:58:18.134Z,9.15
2019-02-11T02:59:19.482Z,14.33
2019-02-11T03:00:20.786Z,9.70
2019-02-11T03:01:22.125Z,15.18
2019-02-11T03:02:23.479Z,12.93
2019-02-11T03:03:24.803Z,9.90
2019-02-11T03:04:26.128Z,12.15
2019-02-11T03:05:27.437Z,12.85
2019-02-11T03:06:28.777Z,14.40
2019-02-11T03:07:30.405Z,11.45
2019-02-11T03:08:31.770Z,18.02
2019-02-11T03:09:33.196Z,14.98
2019-02-11T03:10:34.518Z,14.80
2019-02-11T03:11:35.875Z,14.05
2019-02-11T03:12:37.185Z,10.70
2019-02-11T03:13:38.555Z,13.62
2019-02-11T03:14:39.906Z,14.38
2019-02-11T03:15:41.225Z,13.13
2019-02-11T03:16:42.534Z,13.08
2019-02-11T03:17:43.877Z,15.28
2019-02-11T03:18:45.225Z,13.43
2019-02-11T03:19:46.556Z,11.33
2019-02-11T03:20:47.888Z,14.80
2019-02-11T03:21:49.239Z,13.28
2019-02-11T03:22:50.557Z,13.65
2019-02-11T03:23:51.922Z,14.55
2019-02-11T03:24:53.243Z,13.58
2019-02-11T03:25:54.590Z,15.28
2019-02-11T03:26:55.904Z,13.03
2019-02-11T03:27:57.221Z,16.00
2019-02-11T03:28:58.566Z,15.13
2019-02-11T03:29:59.889Z,16.12
2019-02-11T03:31:01.221Z,12.45
2019-02-11T03:32:02.588Z,16.40
2019-02-11T03:33:03.985Z,12.18
2019-02-11T03:34:05.367Z,10.58
2019-02-11T03:35:06.740Z,9.05
2019-02-11T03:36:08.049Z,17.70
2019-02-11T03:37:09.373Z,14.55
2019-02-11T03:38:10.699Z,18.65
2019-02-11T03:39:12.013Z,17.35
2019-02-11T03:40:13.359Z,18.92
2019-02-11T03:41:14.704Z,13.35
2019-02-11T03:42:16.030Z,17.50
2019-02-11T03:43:17.395Z,20.88
2019-02-11T03:44:18.711Z,18.60
2019-02-11T03:45:20.046Z,17.92
2019-02-11T03:46:21.371Z,15.95
2019-02-11T03:47:22.726Z,17.15
2019-02-11T03:48:24.052Z,12.55
2019-02-11T03:49:25.395Z,14.47
2019-02-11T03:50:26.809Z,21.10
2019-02-11T03:51:28.155Z,14.60
2019-02-11T03:52:29.506Z,18.37
2019-02-11T03:53:30.845Z,16.65
2019-02-11T03:54:32.247Z,17.75
2019-02-11T03:55:33.581Z,13.45
2019-02-11T03:56:34.903Z,16.32
2019-02-11T03:57:36.292Z,9.48
2019-02-11T03:58:37.705Z,13.93
2019-02-11T03:59:39.184Z,13.28
2019-02-11T04:00:40.500Z,11.83
2019-02-11T04:01:41.863Z,15.23
2019-02-11T04:02:43.228Z,21.35
2019-02-11T04:03:44.561Z,12.30
2019-02-11T04:04:45.885Z,13.75
2019-02-11T04:05:47.242Z,12.80
2019-02-11T04:06:48.568Z,13.55
2019-02-11T04:07:49.905Z,16.48
2019-02-11T04:08:51.232Z,18.15
2019-02-11T04:09:52.566Z,16.35
2019-02-11T04:10:53.919Z,17.30
2019-02-11T04:11:55.226Z,20.68
2019-02-11T04:12:56.547Z,20.25
2019-02-11T04:13:57.875Z,16.85
2019-02-11T04:14:59.229Z,19.77
2019-02-11T04:16:00.675Z,12.53
2019-02-11T04:17:02.113Z,13.98
2019-02-11T04:18:03.457Z,13.40
2019-02-11T04:19:04.803Z,13.30
2019-02-11T04:20:06.143Z,17.60
2019-02-11T04:21:07.508Z,11.35
2019-02-11T04:22:08.937Z,17.35
2019-02-11T04:23:10.284Z,18.75
2019-02-11T04:24:11.632Z,15.18
2019-02-11T04:25:12.946Z,20.35
2019-02-11T04:26:14.285Z,18.42
2019-02-11T04:27:15.667Z,18.17
2019-02-11T04:28:17.094Z,15.65
2019-02-11T04:29:18.405Z,15.48
2019-02-11T04:30:19.743Z,11.93
2019-02-11T04:31:21.067Z,17.05
2019-02-11T04:32:22.603Z,14.78
2019-02-11T04:33:23.951Z,18.40
2019-02-11T04:34:25.278Z,19.92
2019-02-11T04:35:26.634Z,16.45
2019-02-11T04:36:27.940Z,17.85
2019-02-11T04:37:29.430Z,13.88
2019-02-11T04:38:30.758Z,15.72
2019-02-11T04:39:32.100Z,15.32
2019-02-11T04:40:33.449Z,17.70
2019-02-11T04:41:34.786Z,14.33
2019-02-11T04:42:36.103Z,18.62
2019-02-11T04:43:37.428Z,13.65
2019-02-11T04:44:38.761Z,13.55
2019-02-11T04:45:40.236Z,12.98
2019-02-11T04:46:41.669Z,9.58
2019-02-11T04:47:42.977Z,12.70
2019-02-11T04:48:44.294Z,13.13
2019-02-11T04:49:45.719Z,15.40
2019-02-11T04:50:47.070Z,19.75
2019-02-11T04:51:48.416Z,11.43
2019-02-11T04:52:49.732Z,12.33
2019-02-11T04:53:51.052Z,14.23
2019-02-11T04:54:52.365Z,16.07
2019-02-11T04:55:53.734Z,16.25
2019-02-11T04:56:55.050Z,10.28
2019-02-11T04:57:56.418Z,13.70
2019-02-11T04:58:57.741Z,11.83
2019-02-11T04:59:59.071Z,11.93
2019-02-11T05:01:00.400Z,14.50
2019-02-11T05:02:01.787Z,10.03
2019-02-11T05:03:03.230Z,12.37
2019-02-11T05:04:04.557Z,12.37
2019-02-11T05:05:05.984Z,13.25
2019-02-11T05:06:07.376Z,9.38
2019-02-11T05:07:08.745Z,8.63
2019-02-11T05:08:10.214Z,12.88
2019-02-11T05:09:11.543Z,11.75
2019-02-11T05:10:12.855Z,12.60
2019-02-11T05:11:14.179Z,11.73
2019-02-11T05:12:15.504Z,8.15
2019-02-11T05:13:16.876Z,11.12
2019-02-11T05:14:18.189Z,17.62
2019-02-11T05:15:19.506Z,12.05
2019-02-11T05:16:20.881Z,16.67
2019-02-11T05:17:22.206Z,11.43
2019-02-11T05:18:23.523Z,14.63
2019-02-11T05:19:24.862Z,14.90
2019-02-11T05:20:26.210Z,9.38
2019-02-11T05:21:27.559Z,11.88
2019-02-11T05:22:28.931Z,14.15
2019-02-11T05:23:30.258Z,14.68
2019-02-11T05:24:31.570Z,13.03
2019-02-11T05:25:32.965Z,14.13
2019-02-11T05:26:34.285Z,15.05
2019-02-11T05:27:35.634Z,13.62
2019-02-11T05:28:36.997Z,12.58
2019-02-11T05:29:38.307Z,13.18
2019-02-11T05:30:39.683Z,11.73
2019-02-11T05:31:41.014Z,17.20
2019-02-11T05:32:42.405Z,11.48
2019-02-11T05:33:43.782Z,15.15
2019-02-11T05:34:45.157Z,11.38
2019-02-11T05:35:46.555Z,17.77
2019-02-11T05:36:47.901Z,16.07
2019-02-11T05:37:49.426Z,15.13
2019-02-11T05:38:50.795Z,11.73
2019-02-11T05:39:52.130Z,16.45
2019-02-11T05:40:53.447Z,21.07
2019-02-11T05:41:54.781Z,13.28
2019-02-11T05:42:56.160Z,11.08
2019-02-11T05:43:57.514Z,13.93
2019-02-11T05:44:58.858Z,12.20
2019-02-11T05:46:00.230Z,16.90
2019-02-11T05:47:01.553Z,12.05
2019-02-11T05:48:02.919Z,19.10
2019-02-11T05:49:04.326Z,17.23
2019-02-11T05:50:05.686Z,14.68
2019-02-11T05:51:07.019Z,17.10
2019-02-11T05:52:08.332Z,11.93
2019-02-11T05:53:09.677Z,12.07
2019-02-11T05:54:11.013Z,15.65
2019-02-11T05:55:12.476Z,14.78
2019-02-11T05:56:13.797Z,15.75
2019-02-11T05:57:15.139Z,10.68
2019-02-11T05:58:16.541Z,14.98
2019-02-11T05:59:17.871Z,16.60
2019-02-11T06:00:19.515Z,18.70
2019-02-11T06:01:20.844Z,17.87
2019-02-11T06:02:22.185Z,11.38
2019-02-11T06:03:23.639Z,18.02
2019-02-11T06:04:25.059Z,12.50
2019-02-11T06:05:26.424Z,15.25
2019-02-11T06:06:27.726Z,14.25
2019-02-11T06:07:29.062Z,18.32
2019-02-11T06:08:30.481Z,17.40
2019-02-11T06:09:31.806Z,17.67
2019-02-11T06:10:33.201Z,13.05
2019-02-11T06:11:34.599Z,14.55
2019-02-11T06:12:35.926Z,20.05
2019-02-11T06:13:37.284Z,15.63
2019-02-11T06:14:38.606Z,14.23
2019-02-11T06:15:39.918Z,19.50
2019-02-11T06:16:41.251Z,15.70
2019-02-11T06:17:42.609Z,12.18
2019-02-11T06:18:44.019Z,15.38
2019-02-11T06:19:45.466Z,13.90
2019-02-11T06:20:47.107Z,19.67
2019-02-11T06:21:48.433Z,17.35
2019-02-11T06:22:49.748Z,10.98
2019-02-11T06:23:51.118Z,11.33
2019-02-11T06:24:52.459Z,16.60
2019-02-11T06:25:53.844Z,11.80
2019-02-11T06:26:55.164Z,9.78
2019-02-11T06:27:56.540Z,11.18
2019-02-11T06:28:57.871Z,18.37
2019-02-11T06:29:59.190Z,16.82
2019-02-11T06:31:00.526Z,22.30
2019-02-11T06:32:01.841Z,18.05
2019-02-11T06:33:03.294Z,15.00
2019-02-11T06:34:04.705Z,18.52
2019-02-11T06:35:06.035Z,13.85
2019-02-11T06:36:12.496Z,14.43
2019-02-11T06:37:10.576Z,15.60
2019-02-11T06:38:12.040Z,18.48
2019-02-11T06:39:13.382Z,24.50
2019-02-11T06:40:14.703Z,16.52
2019-02-11T06:41:16.025Z,17.30
2019-02-11T06:42:17.374Z,17.37
2019-02-11T06:43:18.729Z,15.48
2019-02-11T06:44:20.078Z,14.95
2019-02-11T06:45:21.403Z,10.43
2019-02-11T06:46:22.733Z,18.98
2019-02-11T06:47:24.110Z,14.05
2019-02-11T06:48:25.424Z,15.72
2019-02-11T06:49:26.818Z,14.55
2019-02-11T06:50:28.254Z,17.98
2019-02-11T06:51:29.730Z,17.12
2019-02-11T06:52:31.038Z,17.77
2019-02-11T06:53:32.384Z,16.02
2019-02-11T06:54:33.748Z,17.35
2019-02-11T06:55:35.087Z,17.82
2019-02-11T06:56:36.449Z,16.02
2019-02-11T06:57:37.792Z,14.58
2019-02-11T06:58:39.118Z,16.73
2019-02-11T06:59:40.443Z,17.48
2019-02-11T07:00:41.771Z,18.00
2019-02-11T07:01:43.147Z,14.30
2019-02-11T07:02:44.497Z,12.43
2019-02-11T07:03:45.806Z,14.95
2019-02-11T07:04:47.142Z,17.70
2019-02-11T07:05:48.514Z,19.35
2019-02-11T07:06:49.852Z,12.37
2019-02-11T07:07:51.187Z,11.08
2019-02-11T07:08:52.542Z,16.67
2019-02-11T07:09:53.880Z,15.65
2019-02-11T07:10:55.880Z,19.17
2019-02-11T07:11:57.407Z,17.57
2019-02-11T07:12:58.739Z,15.72
2019-02-11T07:14:00.080Z,16.50
2019-02-11T07:15:01.455Z,15.30
2019-02-11T07:16:02.797Z,18.80
2019-02-11T07:17:04.220Z,21.75
2019-02-11T07:18:05.536Z,34.73
2019-02-11T07:19:06.871Z,14.28
2019-02-11T07:20:08.290Z,16.42
2019-02-11T07:21:09.702Z,13.03
2019-02-11T07:22:11.025Z,18.07
2019-02-11T07:23:12.361Z,18.20
2019-02-11T07:24:13.689Z,16.05
2019-02-11T07:25:16.546Z,14.63
2019-02-11T07:26:18.278Z,15.50
2019-02-11T07:27:19.617Z,13.60
2019-02-11T07:28:20.938Z,13.62
2019-02-11T07:29:22.479Z,17.77
2019-02-11T07:30:23.800Z,13.98
2019-02-11T07:31:25.171Z,15.03
2019-02-11T07:32:26.500Z,14.35
2019-02-11T07:33:27.839Z,14.58
2019-02-11T07:34:29.165Z,14.65
2019-02-11T07:35:30.537Z,13.93
2019-02-11T07:36:31.859Z,12.95
2019-02-11T07:37:33.199Z,17.65
2019-02-11T07:38:34.508Z,18.42
2019-02-11T07:39:35.859Z,14.25
2019-02-11T07:40:37.210Z,15.03
2019-02-11T07:41:38.555Z,13.93
2019-02-11T07:42:39.949Z,14.93
2019-02-11T07:43:41.287Z,17.57
2019-02-11T07:44:42.624Z,14.07
2019-02-11T07:45:43.958Z,16.00
2019-02-11T07:46:45.319Z,15.53
2019-02-11T07:47:46.677Z,20.25
2019-02-11T07:48:48.007Z,15.20
2019-02-11T07:49:49.338Z,14.50
2019-02-11T07:50:50.665Z,18.52
2019-02-11T07:51:51.986Z,17.15
2019-02-11T07:52:53.354Z,9.20
2019-02-11T07:53:54.713Z,11.05
2019-02-11T07:54:56.031Z,17.15
2019-02-11T07:55:57.408Z,12.85
2019-02-11T07:56:58.773Z,12.30
2019-02-11T07:58:00.093Z,16.87
2019-02-11T07:59:01.493Z,13.30
2019-02-11T08:00:02.809Z,15.80
2019-02-11T08:01:04.194Z,17.60
2019-02-11T08:02:05.523Z,11.15
2019-02-11T08:03:06.869Z,16.45
2019-02-11T08:04:08.178Z,11.08
2019-02-11T08:05:09.509Z,14.93
2019-02-11T08:06:10.829Z,14.85
2019-02-11T08:07:12.200Z,15.83
2019-02-11T08:08:13.610Z,11.20
2019-02-11T08:09:15.086Z,17.82
2019-02-11T08:10:16.442Z,9.30
2019-02-11T08:11:17.778Z,12.00
2019-02-11T08:12:19.119Z,12.65
2019-02-11T08:13:20.444Z,15.55
2019-02-11T08:14:21.826Z,14.68
2019-02-11T08:15:23.135Z,13.20
2019-02-11T08:16:24.461Z,12.53
2019-02-11T08:17:25.776Z,11.18
2019-02-11T08:18:27.125Z,12.13
2019-02-11T08:19:28.495Z,13.90
2019-02-11T08:20:29.839Z,12.25
2019-02-11T08:21:31.162Z,13.48
2019-02-11T08:22:32.490Z,12.90
2019-02-11T08:23:33.853Z,12.18
2019-02-11T08:24:35.234Z,8.83
2019-02-11T08:25:36.586Z,9.73
2019-02-11T08:26:37.914Z,10.18
2019-02-11T08:27:39.245Z,13.22
2019-02-11T08:28:40.580Z,12.55
2019-02-11T08:29:41.946Z,12.85
2019-02-11T08:30:43.303Z,12.05
2019-02-11T08:31:44.610Z,9.43
2019-02-11T08:32:45.966Z,14.73
2019-02-11T08:33:47.302Z,10.58
2019-02-11T08:34:48.669Z,13.48
2019-02-11T08:35:49.997Z,13.45
2019-02-11T08:36:51.308Z,11.10
2019-02-11T08:37:52.665Z,9.95
2019-02-11T08:38:54.006Z,15.65
2019-02-11T08:39:55.333Z,11.65
2019-02-11T08:40:56.703Z,14.35
2019-02-11T08:41:58.024Z,13.85
2019-02-11T08:42:59.355Z,14.98
2019-02-11T08:44:00.683Z,19.42
2019-02-11T08:45:02.038Z,16.95
2019-02-11T08:46:03.400Z,20.20
2019-02-11T08:47:04.743Z,11.22
2019-02-11T08:48:06.096Z,14.07
2019-02-11T08:49:07.474Z,14.35
2019-02-11T08:50:08.934Z,14.75
2019-02-11T08:51:10.391Z,13.95
2019-02-11T08:52:11.727Z,16.95
2019-02-11T08:53:13.247Z,12.33
2019-02-11T08:54:14.744Z,16.12
2019-02-11T08:55:16.135Z,15.93
2019-02-11T08:56:17.732Z,15.48
2019-02-11T08:57:19.053Z,11.75
2019-02-11T08:58:20.451Z,17.55
2019-02-11T08:59:21.869Z,14.90
2019-02-11T09:00:23.190Z,16.20
2019-02-11T09:01:24.554Z,14.93
2019-02-11T09:02:25.904Z,16.32
2019-02-11T09:03:27.287Z,14.58
2019-02-11T09:04:28.836Z,11.73
2019-02-11T09:05:30.194Z,21.80
2019-02-11T09:06:31.538Z,16.02
2019-02-11T09:07:32.930Z,14.35
2019-02-11T09:08:34.338Z,15.13
2019-02-11T09:09:35.711Z,17.07
2019-02-11T09:10:37.064Z,17.87
2019-02-11T09:11:38.421Z,17.48
2019-02-11T09:12:39.790Z,13.53
2019-02-11T09:13:41.110Z,14.78
2019-02-11T09:14:42.462Z,16.02
2019-02-11T09:15:43.866Z,17.95
2019-02-11T09:16:45.195Z,13.30
2019-02-11T09:17:46.561Z,15.80
2019-02-11T09:18:47.930Z,17.30
2019-02-11T09:19:49.254Z,16.35
2019-02-11T09:20:50.591Z,13.95
2019-02-11T09:21:51.913Z,14.28
2019-02-11T09:22:53.306Z,15.40
2019-02-11T09:23:54.651Z,17.90
2019-02-11T09:24:55.971Z,15.40
2019-02-11T09:25:57.320Z,16.95
2019-02-11T09:26:58.627Z,21.10
2019-02-11T09:28:00.131Z,13.72
2019-02-11T09:29:01.463Z,14.03
2019-02-11T09:30:02.794Z,19.05
2019-02-11T09:31:04.127Z,18.98
2019-02-11T09:32:05.502Z,18.00
2019-02-11T09:33:06.877Z,16.25
2019-02-11T09:34:08.215Z,15.15
2019-02-11T09:35:09.533Z,15.85
2019-02-11T09:36:10.900Z,14.58
2019-02-11T09:37:12.230Z,15.40
2019-02-11T09:38:13.638Z,18.15
2019-02-11T09:39:14.978Z,12.13
2019-02-11T09:40:16.364Z,16.25
2019-02-11T09:41:17.703Z,19.60
2019-02-11T09:42:19.045Z,14.13
2019-02-11T09:43:20.356Z,13.08
2019-02-11T09:44:29.321Z,14.68
2019-02-11T09:45:24.933Z,18.65
2019-02-11T09:46:26.321Z,15.00
2019-02-11T09:47:27.737Z,14.00
2019-02-11T09:48:29.073Z,15.53
2019-02-11T09:49:30.452Z,16.42
2019-02-11T09:50:31.807Z,18.42
2019-02-11T09:51:33.125Z,17.37
2019-02-11T09:52:34.464Z,17.62
2019-02-11T09:53:35.781Z,19.37
2019-02-11T09:54:37.162Z,15.03
2019-02-11T09:55:38.498Z,17.87
2019-02-11T09:56:39.847Z,20.15
2019-02-11T09:57:41.188Z,15.15
2019-02-11T09:58:42.618Z,14.78
2019-02-11T09:59:43.982Z,24.92
2019-02-11T10:00:45.307Z,22.15
2019-02-11T10:01:46.634Z,20.20
2019-02-11T10:02:47.974Z,22.75
2019-02-11T10:03:49.318Z,18.20
2019-02-11T10:04:50.681Z,16.73
2019-02-11T10:05:52.026Z,19.00
2019-02-11T10:06:53.348Z,25.88
2019-02-11T10:07:54.922Z,22.35
2019-02-11T10:08:56.276Z,22.93
2019-02-11T10:09:57.601Z,19.82
2019-02-11T10:10:58.954Z,20.32
2019-02-11T10:12:00.293Z,20.70
2019-02-11T10:13:01.614Z,21.07
2019-02-11T10:14:02.946Z,23.32
2019-02-11T10:15:04.284Z,16.77
2019-02-11T10:16:12.405Z,14.93
2019-02-11T10:17:08.972Z,11.85
2019-02-11T10:18:10.404Z,15.68
2019-02-11T10:19:11.717Z,12.73
2019-02-11T10:20:13.087Z,16.32
2019-02-11T10:21:14.421Z,14.80
2019-02-11T10:22:15.747Z,15.63
2019-02-11T10:23:18.195Z,10.78
2019-02-11T10:24:19.777Z,11.33
2019-02-11T10:25:21.101Z,13.48
2019-02-11T10:26:22.608Z,12.43
2019-02-11T10:27:24.222Z,10.68
2019-02-11T10:28:25.553Z,9.98
2019-02-11T10:29:27.061Z,9.93
2019-02-11T10:30:28.566Z,13.58
2019-02-11T10:31:29.958Z,9.65
2019-02-11T10:32:31.289Z,12.03
2019-02-11T10:33:32.612Z,25.32
2019-02-11T10:34:33.979Z,16.52
2019-02-11T10:35:42.127Z,16.23
2019-02-11T10:36:38.546Z,15.08
2019-02-11T10:37:39.878Z,14.28
2019-02-11T10:38:41.288Z,13.28
2019-02-11T10:39:42.728Z,14.25
2019-02-11T10:40:44.080Z,14.45
2019-02-11T10:41:45.449Z,11.08
2019-02-11T10:42:46.776Z,9.95
2019-02-11T10:43:48.112Z,11.73
2019-02-11T10:44:49.441Z,15.05
2019-02-11T10:45:50.788Z,12.25
2019-02-11T10:46:52.159Z,11.05
2019-02-11T10:47:53.525Z,16.35
2019-02-11T10:48:54.857Z,16.02
2019-02-11T10:49:56.211Z,16.73
2019-02-11T10:50:57.852Z,16.93
2019-02-11T10:51:59.314Z,17.50
2019-02-11T10:53:00.762Z,20.62
2019-02-11T10:54:02.062Z,19.05
2019-02-11T10:55:03.474Z,19.70
2019-02-11T10:56:04.912Z,13.65
2019-02-11T10:57:06.231Z,18.12
2019-02-11T10:58:07.572Z,17.37
2019-02-11T10:59:08.926Z,10.48
2019-02-11T11:00:10.276Z,18.07
2019-02-11T11:01:13.012Z,21.27
2019-02-11T11:02:14.857Z,21.50
2019-02-11T11:03:16.270Z,14.03
2019-02-11T11:04:17.762Z,16.93
2019-02-11T11:05:19.125Z,17.48
2019-02-11T11:06:20.476Z,20.30
2019-02-11T11:07:21.813Z,19.40
2019-02-11T11:08:23.177Z,20.35
2019-02-11T11:09:24.488Z,25.97
2019-02-11T11:10:25.851Z,21.65
2019-02-11T11:11:27.168Z,19.05
2019-02-11T11:12:28.503Z,22.02
2019-02-11T11:13:29.907Z,23.07
2019-02-11T11:14:31.501Z,24.07
2019-02-11T11:15:32.829Z,26.25
2019-02-11T11:16:34.284Z,15.03
2019-02-11T11:17:35.628Z,18.17
2019-02-11T11:18:36.958Z,17.65
2019-02-11T11:19:38.302Z,23.62
2019-02-11T11:20:39.633Z,19.67
2019-02-11T11:21:41.002Z,18.50
2019-02-11T11:22:42.355Z,20.60
2019-02-11T11:23:43.730Z,17.92
2019-02-11T11:24:45.070Z,18.92
2019-02-11T11:25:46.586Z,14.83
2019-02-11T11:26:47.941Z,18.32
2019-02-11T11:27:49.312Z,26.10
2019-02-11T11:28:50.680Z,18.02
2019-02-11T11:29:52.084Z,20.08
2019-02-11T11:30:53.426Z,17.50
2019-02-11T11:31:54.849Z,21.60
2019-02-11T11:32:56.210Z,15.55
2019-02-11T11:33:57.568Z,22.67
2019-02-11T11:34:58.905Z,24.43
2019-02-11T11:36:00.294Z,22.30
2019-02-11T11:37:01.703Z,17.50
2019-02-11T11:38:03.053Z,24.47
2019-02-11T11:39:04.364Z,19.67
2019-02-11T11:40:05.758Z,19.80
2019-02-11T11:41:07.080Z,22.48
2019-02-11T11:42:08.647Z,22.82
2019-02-11T11:43:10.026Z,16.60
2019-02-11T11:44:11.366Z,18.73
2019-02-11T11:45:12.737Z,13.83
2019-02-11T11:46:14.150Z,18.50
2019-02-11T11:47:15.788Z,15.53
2019-02-11T11:48:17.142Z,13.60
2019-02-11T11:49:18.494Z,18.10
2019-02-11T11:50:19.826Z,14.28
2019-02-11T11:51:21.150Z,17.48
2019-02-11T11:52:22.492Z,16.57
2019-02-11T11:53:23.979Z,21.20
2019-02-11T11:54:25.343Z,13.32
2019-02-11T11:55:26.759Z,18.65
2019-02-11T11:56:28.104Z,20.40
2019-02-11T11:57:29.552Z,17.70
2019-02-11T11:58:31.018Z,17.32
2019-02-11T11:59:32.499Z,19.90
2019-02-11T12:00:33.887Z,20.45
2019-02-11T12:01:35.203Z,15.60
2019-02-11T12:02:36.583Z,14.55
2019-02-11T12:03:37.962Z,21.10
2019-02-11T12:04:39.294Z,20.10
2019-02-11T12:05:40.637Z,16.27
2019-02-11T12:06:42.092Z,21.15
2019-02-11T12:07:43.532Z,18.12
2019-02-11T12:08:44.920Z,15.68
2019-02-11T12:09:46.344Z,19.77
2019-02-11T12:10:47.818Z,13.90
2019-02-11T12:11:49.195Z,12.47
2019-02-11T12:12:50.616Z,15.23
2019-02-11T12:13:52.054Z,17.73
2019-02-11T12:14:53.481Z,16.17
2019-02-11T12:15:54.943Z,16.35
2019-02-11T12:17:02.276Z,22.58
2019-02-11T12:17:59.664Z,16.12
2019-02-11T12:19:01.035Z,16.50
2019-02-11T12:20:02.514Z,11.05
2019-02-11T12:21:03.859Z,9.18
2019-02-11T12:22:05.279Z,9.25
2019-02-11T12:23:06.637Z,12.70
2019-02-11T12:24:08.074Z,10.75
2019-02-11T12:25:09.676Z,10.75
2019-02-11T12:26:11.103Z,15.23
2019-02-11T12:27:12.587Z,14.35
2019-02-11T12:28:14.033Z,19.02
2019-02-11T12:29:15.484Z,13.35
2019-02-11T12:30:17.052Z,16.73
2019-02-11T12:31:18.470Z,11.83
2019-02-11T12:32:19.833Z,14.23
2019-02-11T12:33:21.311Z,16.57
2019-02-11T12:34:22.817Z,13.10
2019-02-11T12:35:24.304Z,12.15
2019-02-11T12:36:25.730Z,12.68
2019-02-11T12:37:27.172Z,14.73
2019-02-11T12:38:28.515Z,14.38
2019-02-11T12:39:29.884Z,12.07
2019-02-11T12:40:31.230Z,11.20
2019-02-11T12:41:32.676Z,11.80
2019-02-11T12:42:34.007Z,15.75
2019-02-11T12:43:35.373Z,14.13
2019-02-11T12:44:36.692Z,16.67
2019-02-11T12:45:38.055Z,19.17
2019-02-11T12:46:39.436Z,19.00
2019-02-11T12:47:40.887Z,21.70
2019-02-11T12:48:42.199Z,17.20
2019-02-11T12:49:43.520Z,15.72
2019-02-11T12:50:44.881Z,15.10
2019-02-11T12:51:46.327Z,20.02
2019-02-11T12:52:48.005Z,17.42
2019-02-11T12:53:49.397Z,17.15
2019-02-11T12:54:50.789Z,15.58
2019-02-11T12:55:52.170Z,20.75
2019-02-11T12:56:53.515Z,17.20
2019-02-11T12:57:54.911Z,16.05
2019-02-11T12:58:56.332Z,16.57
2019-02-11T12:59:57.643Z,16.95
2019-02-11T13:00:59.002Z,18.77
2019-02-11T13:02:00.374Z,17.23
2019-02-11T13:03:01.901Z,21.10
2019-02-11T13:04:03.240Z,16.67
2019-02-11T13:05:04.682Z,17.80
2019-02-11T13:06:06.135Z,17.12
2019-02-11T13:07:07.452Z,18.55
2019-02-11T13:08:08.805Z,18.70
2019-02-11T13:09:10.180Z,22.67
2019-02-11T13:10:11.598Z,20.17
2019-02-11T13:11:13.189Z,21.15
2019-02-11T13:12:14.661Z,16.73
2019-02-11T13:13:16.093Z,15.05
2019-02-11T13:14:17.525Z,18.67
2019-02-11T13:15:42.820Z,20.08